Time;durP1;ratioP1;P1;durP2;ratioP2;P2;SDS_P1;SDS_P2;PMS_P1;PMS_P2;Temp;Humidity;BMP_temperature;BMP_pressure;BME280_temperature;BME280_humidity;BME280_pressure;Samples;Min_cycle;Max_cycle;Signal;HPM_P1;HPM_P2
2024/01/23 06:01:11;;;;;;;3.92;1.00;;;5.40;93.70;;;;;;4516830;23;20061;-81
2024/01/23 06:03:13;;;;;;;2.78;0.73;;;5.30;93.60;;;;;;4102164;29;20389;-79
2024/01/23 06:05:15;;;;;;;4.65;1.27;;;5.20;94.00;;;;;;4102843;29;20047;-79
2024/01/23 06:07:17;;;;;;;5.53;0.85;;;5.20;93.90;;;;;;4102606;29;20043;-79
2024/01/23 06:09:19;;;;;;;3.60;0.63;;;5.20;93.80;;;;;;4102568;29;20456;-80
2024/01/23 06:11:22;;;;;;;3.90;0.70;;;5.20;93.70;;;;;;4102179;29;20055;-80
2024/01/23 06:13:23;;;;;;;2.60;0.80;;;5.20;93.50;;;;;;4102187;29;20051;-79
2024/01/23 06:15:25;;;;;;;3.30;0.50;;;5.20;93.30;;;;;;4102302;29;20389;-80
2024/01/23 06:17:27;;;;;;;3.60;0.60;;;5.20;93.30;;;;;;4102176;29;20047;-80
2024/01/23 06:19:29;;;;;;;1.15;0.25;;;5.20;93.60;;;;;;4102520;29;20142;-78
2024/01/23 06:21:31;;;;;;;2.47;0.40;;;5.20;93.50;;;;;;4102779;29;20047;-78
2024/01/23 06:23:33;;;;;;;1.80;0.35;;;5.20;93.70;;;;;;4102116;29;20047;-78
2024/01/23 06:25:35;;;;;;;2.45;0.43;;;5.20;93.50;;;;;;4102451;29;20059;-79
2024/01/23 06:27:37;;;;;;;2.53;0.50;;;5.20;93.80;;;;;;4102392;29;20051;-80
2024/01/23 06:29:39;;;;;;;3.72;0.40;;;5.10;93.80;;;;;;4102273;29;20445;-81
2024/01/23 06:31:41;;;;;;;1.63;0.32;;;5.10;93.80;;;;;;4101936;29;20051;-81
2024/01/23 06:33:44;;;;;;;2.20;0.30;;;5.20;94.10;;;;;;4101950;28;20044;-80
2024/01/23 06:35:46;;;;;;;3.15;1.10;;;5.10;94.10;;;;;;4101584;29;20051;-81
2024/01/23 06:37:48;;;;;;;3.75;0.70;;;5.10;94.10;;;;;;4101682;29;20059;-80
2024/01/23 06:39:50;;;;;;;1.35;0.30;;;5.10;94.20;;;;;;4101655;29;20051;-77
2024/01/23 06:41:52;;;;;;;1.75;0.43;;;5.00;94.40;;;;;;4101791;29;20138;-80
2024/01/23 06:43:54;;;;;;;2.63;0.32;;;5.00;94.40;;;;;;4101841;29;20051;-80
2024/01/23 06:45:57;;;;;;;3.13;0.65;;;5.00;94.30;;;;;;4102321;29;20047;-80
2024/01/23 06:47:59;;;;;;;2.00;0.50;;;5.10;94.30;;;;;;4102300;29;20147;-79
2024/01/23 06:50:03;;;;;;;3.15;0.70;;;5.10;94.20;;;;;;4104948;29;20063;-79
2024/01/23 06:52:05;;;;;;;2.85;0.70;;;5.10;94.00;;;;;;4103471;29;20050;-79
2024/01/23 06:54:07;;;;;;;3.30;0.52;;;5.10;94.30;;;;;;4102064;29;20106;-79
2024/01/23 06:56:09;;;;;;;1.52;0.50;;;5.10;94.30;;;;;;4101410;29;20488;-80
2024/01/23 06:58:10;;;;;;;2.40;0.60;;;5.10;94.30;;;;;;4101610;29;20051;-79
2024/01/23 07:00:14;;;;;;;2.33;0.70;;;5.10;94.20;;;;;;4101286;29;20499;-80
2024/01/23 07:02:16;;;;;;;3.15;0.85;;;5.10;93.70;;;;;;4101044;29;20110;-81
2024/01/23 07:04:17;;;;;;;3.10;0.70;;;5.00;93.90;;;;;;4101146;29;20445;-79
2024/01/23 07:06:20;;;;;;;3.45;0.60;;;5.00;94.10;;;;;;4101331;29;20051;-80
2024/01/23 07:08:22;;;;;;;2.95;0.63;;;5.00;94.00;;;;;;4101083;29;20102;-80
2024/01/23 07:10:24;;;;;;;2.47;0.60;;;4.90;94.40;;;;;;4101161;29;20080;-80
2024/01/23 07:12:26;;;;;;;2.53;0.50;;;5.00;94.60;;;;;;4101125;29;20051;-80
2024/01/23 07:14:27;;;;;;;2.90;0.80;;;5.00;94.60;;;;;;4101146;29;20058;-79
2024/01/23 07:16:28;;;;;;;2.17;0.68;;;5.00;94.80;;;;;;4101097;29;20051;-78
2024/01/23 07:18:30;;;;;;;3.40;0.80;;;5.00;94.80;;;;;;4100866;29;20055;-78
2024/01/23 07:20:32;;;;;;;4.88;0.90;;;5.00;94.90;;;;;;4101003;29;20708;-79
2024/01/23 07:22:35;;;;;;;2.88;0.90;;;5.00;95.00;;;;;;4100864;29;20047;-80
2024/01/23 07:24:36;;;;;;;3.53;0.80;;;4.90;94.90;;;;;;4100889;29;20058;-79
2024/01/23 07:26:38;;;;;;;3.42;0.82;;;5.00;94.90;;;;;;4100834;29;20126;-78
2024/01/23 07:28:40;;;;;;;3.67;0.88;;;5.00;94.90;;;;;;4100861;29;20057;-79
2024/01/23 07:30:41;;;;;;;2.88;0.60;;;5.00;94.90;;;;;;4100692;29;20620;-81
2024/01/23 07:32:43;;;;;;;3.05;0.88;;;5.00;94.80;;;;;;4100996;29;20055;-79
2024/01/23 07:34:45;;;;;;;4.90;0.80;;;5.00;94.80;;;;;;4100792;29;20522;-79
2024/01/23 07:36:47;;;;;;;3.78;1.13;;;5.00;94.70;;;;;;4100725;29;20047;-79
2024/01/23 07:38:50;;;;;;;4.05;0.90;;;5.00;94.60;;;;;;4100635;29;20201;-79
2024/01/23 07:40:52;;;;;;;6.32;1.08;;;5.00;94.50;;;;;;4100787;29;20256;-80
2024/01/23 07:42:54;;;;;;;3.17;0.90;;;5.00;94.40;;;;;;4100734;29;20047;-79
2024/01/23 07:44:56;;;;;;;3.88;0.85;;;5.00;94.30;;;;;;4100768;29;20161;-80
2024/01/23 07:46:58;;;;;;;3.88;1.00;;;5.00;94.10;;;;;;4100163;28;20130;-78
2024/01/23 07:48:59;;;;;;;3.95;1.17;;;5.10;94.10;;;;;;4100947;29;20106;-80
2024/01/23 07:51:01;;;;;;;5.75;1.08;;;5.10;94.10;;;;;;4102605;29;20047;-80
2024/01/23 07:53:04;;;;;;;3.55;1.00;;;5.00;94.10;;;;;;4101258;29;20090;-80
2024/01/23 07:55:08;;;;;;;7.07;2.45;;;5.00;94.00;;;;;;4101659;29;20106;-80
2024/01/23 07:57:10;;;;;;;4.05;0.80;;;5.00;94.00;;;;;;4100852;29;20403;-78
2024/01/23 07:59:13;;;;;;;4.07;1.15;;;5.00;94.00;;;;;;4100233;29;20470;-80
2024/01/23 08:01:15;;;;;;;4.65;1.00;;;5.00;94.10;;;;;;4100721;29;20054;-80
2024/01/23 08:03:17;;;;;;;6.75;1.48;;;5.00;94.20;;;;;;4100557;29;20062;-81
2024/01/23 08:05:19;;;;;;;5.50;1.50;;;5.00;94.10;;;;;;4100923;29;20138;-80
2024/01/23 08:07:20;;;;;;;6.68;1.42;;;5.00;94.10;;;;;;4101504;29;20102;-79
2024/01/23 08:09:22;;;;;;;4.82;1.30;;;5.10;94.20;;;;;;4100662;29;20433;-80
2024/01/23 08:11:24;;;;;;;4.43;1.02;;;5.10;94.10;;;;;;4100466;29;20051;-80
2024/01/23 08:13:26;;;;;;;7.40;1.35;;;5.20;94.10;;;;;;4100525;29;20476;-80
2024/01/23 08:15:28;;;;;;;4.25;1.15;;;5.20;94.40;;;;;;4100389;29;20054;-79
2024/01/23 08:17:30;;;;;;;7.15;1.25;;;5.20;93.70;;;;;;4100456;29;20465;-80
2024/01/23 08:19:32;;;;;;;6.55;1.30;;;5.20;93.80;;;;;;4100357;29;20498;-79
2024/01/23 08:21:34;;;;;;;4.85;1.67;;;5.20;93.90;;;;;;4100217;29;20055;-81
2024/01/23 08:23:36;;;;;;;6.28;1.35;;;5.20;94.10;;;;;;4100339;29;20113;-79
2024/01/23 08:25:37;;;;;;;8.23;1.33;;;5.20;94.00;;;;;;4100613;29;20481;-80
2024/01/23 08:27:42;;;;;;;4.63;1.67;;;5.20;94.10;;;;;;4100085;29;20102;-78
2024/01/23 08:29:45;;;;;;;7.25;1.75;;;5.20;94.10;;;;;;4100850;29;20077;-78
2024/01/23 08:31:47;;;;;;;5.72;1.20;;;5.20;94.10;;;;;;4100084;29;20429;-79
2024/01/23 08:33:48;;;;;;;5.95;1.38;;;5.20;93.80;;;;;;4100230;29;20055;-80
2024/01/23 08:35:50;;;;;;;5.82;1.20;;;5.20;93.80;;;;;;4100112;29;20458;-81
2024/01/23 08:37:52;;;;;;;4.57;1.25;;;5.30;93.70;;;;;;4100221;29;20051;-79
2024/01/23 08:39:54;;;;;;;5.30;1.60;;;5.30;93.70;;;;;;4100530;29;20055;-78
2024/01/23 08:41:56;;;;;;;5.25;1.35;;;5.30;93.70;;;;;;4100835;29;20048;-80
2024/01/23 08:43:59;;;;;;;37.70;13.60;;;5.40;93.60;;;;;;4102890;29;20051;-80
2024/01/23 08:46:01;;;;;;;18.38;5.03;;;5.40;93.60;;;;;;4100647;29;20059;-81
2024/01/23 08:48:03;;;;;;;11.77;3.33;;;5.40;93.60;;;;;;4100262;29;20055;-78
2024/01/23 08:50:08;;;;;;;7.38;1.60;;;5.40;93.60;;;;;;4100154;29;20057;-79
2024/01/23 08:52:10;;;;;;;6.32;1.20;;;5.50;93.60;;;;;;4100281;29;20083;-81
2024/01/23 08:54:13;;;;;;;4.68;1.25;;;5.50;93.50;;;;;;4099664;29;20398;-80
2024/01/23 08:56:18;;;;;;;7.15;1.95;;;5.60;93.30;;;;;;4100398;29;20048;-78
2024/01/23 08:58:20;;;;;;;15.48;5.78;;;5.60;93.30;;;;;;4101808;28;20130;-78
2024/01/23 09:00:24;;;;;;;7.95;1.45;;;5.60;93.30;;;;;;4103108;29;20051;-81
2024/01/23 09:02:27;;;;;;;4.72;1.20;;;5.70;93.10;;;;;;4103379;29;20386;-80
2024/01/23 09:04:28;;;;;;;7.82;1.60;;;5.70;93.30;;;;;;4102916;29;20051;-80
2024/01/23 09:06:30;;;;;;;5.50;1.30;;;5.70;93.10;;;;;;4102944;29;20130;-80
2024/01/23 09:08:31;;;;;;;5.25;1.50;;;5.70;93.10;;;;;;4102927;29;20102;-78
2024/01/23 09:10:33;;;;;;;6.68;1.58;;;5.70;93.20;;;;;;4102935;29;20047;-79
2024/01/23 09:12:35;;;;;;;5.20;1.55;;;5.70;93.30;;;;;;4102950;29;20054;-80
2024/01/23 09:14:38;;;;;;;6.13;1.42;;;5.80;93.30;;;;;;4102952;29;20047;-79
2024/01/23 09:16:41;;;;;;;7.25;1.55;;;5.80;93.10;;;;;;4103100;29;20057;-79
2024/01/23 09:18:44;;;;;;;6.68;1.20;;;5.80;93.10;;;;;;4102990;29;20477;-80
2024/01/23 09:20:46;;;;;;;5.65;1.55;;;5.80;92.90;;;;;;4102714;29;20353;-78
2024/01/23 09:22:50;;;;;;;9.40;1.60;;;5.80;92.60;;;;;;4103030;29;20051;-79
2024/01/23 09:24:52;;;;;;;5.32;1.65;;;5.90;92.70;;;;;;4103157;29;20051;-79
2024/01/23 09:26:58;;;;;;;8.15;1.60;;;5.90;92.70;;;;;;4102590;29;20055;-78
2024/01/23 09:29:00;;;;;;;6.97;1.73;;;6.00;92.70;;;;;;4102982;29;20058;-81
2024/01/23 09:31:02;;;;;;;7.43;1.80;;;6.10;93.00;;;;;;4102769;29;20386;-80
2024/01/23 09:33:05;;;;;;;4.82;1.38;;;6.20;92.20;;;;;;4102901;29;20047;-80
2024/01/23 09:35:07;;;;;;;5.07;1.13;;;6.30;92.40;;;;;;4102549;29;20051;-81
2024/01/23 09:37:09;;;;;;;6.38;1.65;;;6.30;92.10;;;;;;4102967;29;20466;-79
2024/01/23 09:39:13;;;;;;;7.68;1.70;;;6.30;92.40;;;;;;4102681;29;20472;-78
2024/01/23 09:41:15;;;;;;;6.72;1.70;;;6.40;92.70;;;;;;4102651;29;20051;-80
2024/01/23 09:43:20;;;;;;;7.25;1.60;;;6.50;92.60;;;;;;4102607;29;20393;-79
2024/01/23 09:45:28;;;;;;;8.18;1.67;;;6.50;92.50;;;;;;4102708;29;20134;-80
2024/01/23 09:47:30;;;;;;;7.47;1.48;;;6.50;92.70;;;;;;4102642;29;20473;-79
2024/01/23 09:49:34;;;;;;;9.55;1.73;;;6.50;92.80;;;;;;4102388;29;20544;-79
2024/01/23 09:51:39;;;;;;;6.72;1.90;;;6.60;92.50;;;;;;4102128;29;20085;-79
2024/01/23 09:53:42;;;;;;;7.50;1.58;;;6.60;92.40;;;;;;4102460;29;20456;-80
2024/01/23 09:55:44;;;;;;;12.23;1.80;;;6.60;92.40;;;;;;4102525;29;20466;-81
2024/01/23 09:57:47;;;;;;;7.93;1.67;;;6.70;92.60;;;;;;4102392;29;20374;-81
2024/01/23 09:59:51;;;;;;;7.07;1.50;;;6.80;92.50;;;;;;4102395;29;20114;-81
2024/01/23 10:01:55;;;;;;;6.32;1.58;;;6.90;92.40;;;;;;4102110;29;20060;-80
2024/01/23 10:03:58;;;;;;;11.05;2.40;;;6.90;92.10;;;;;;4102036;29;20106;-79
2024/01/23 10:06:01;;;;;;;9.40;1.92;;;6.90;92.00;;;;;;4102359;29;20043;-78
2024/01/23 10:08:03;;;;;;;8.68;1.88;;;6.90;91.80;;;;;;4102194;29;20055;-78
2024/01/23 10:10:13;;;;;;;8.32;1.98;;;6.90;92.00;;;;;;4101932;28;20078;-81
2024/01/23 10:12:15;;;;;;;8.40;1.90;;;7.00;92.10;;;;;;4102178;29;20134;-80
2024/01/23 10:14:17;;;;;;;10.68;2.20;;;7.10;92.40;;;;;;4101929;29;20043;-80
2024/01/23 10:16:19;;;;;;;8.77;2.00;;;7.20;92.20;;;;;;4101652;29;20043;-78
2024/01/23 10:18:21;;;;;;;7.80;1.75;;;7.20;91.90;;;;;;4102215;29;20086;-79
2024/01/23 10:20:23;;;;;;;10.43;2.20;;;7.30;91.30;;;;;;4101807;29;20055;-80
2024/01/23 10:22:26;;;;;;;11.45;2.55;;;7.40;91.40;;;;;;4101886;29;20098;-81
2024/01/23 10:24:30;;;;;;;10.80;2.38;;;7.40;90.70;;;;;;4101853;29;20058;-80
2024/01/23 10:26:33;;;;;;;12.77;2.13;;;7.50;90.80;;;;;;4106953;29;20047;-79
2024/01/23 10:28:36;;;;;;;8.93;1.75;;;7.50;90.40;;;;;;4107373;29;20055;-81
2024/01/23 10:30:40;;;;;;;9.07;1.95;;;7.50;90.50;;;;;;4107860;29;20126;-78
2024/01/23 10:32:42;;;;;;;10.90;2.53;;;7.50;90.50;;;;;;4104754;29;20130;-80
2024/01/23 10:34:44;;;;;;;10.18;2.00;;;7.40;90.30;;;;;;4101752;29;20047;-81
2024/01/23 10:36:46;;;;;;;10.80;1.90;;;7.30;90.60;;;;;;4101981;29;20098;-81
2024/01/23 10:38:50;;;;;;;12.88;2.42;;;7.30;91.20;;;;;;4103084;29;20051;-80
2024/01/23 10:40:53;;;;;;;9.00;1.80;;;7.20;91.20;;;;;;4102096;29;20481;-79
2024/01/23 10:42:57;;;;;;;8.60;2.03;;;7.20;91.30;;;;;;4101868;29;20051;-79
2024/01/23 10:45:00;;;;;;;8.95;2.10;;;7.10;91.50;;;;;;4101633;29;20444;-79
2024/01/23 10:47:02;;;;;;;9.52;2.05;;;7.10;91.40;;;;;;4101466;29;20047;-79
2024/01/23 10:49:06;;;;;;;10.48;1.98;;;7.10;91.90;;;;;;4101378;29;20081;-80
2024/01/23 10:51:17;;;;;;;7.72;2.03;;;7.10;91.60;;;;;;4101441;29;20051;-79
2024/01/23 10:53:22;;;;;;;10.57;2.20;;;7.00;91.80;;;;;;4101366;29;20063;-79
2024/01/23 10:55:28;;;;;;;11.38;2.28;;;7.00;91.70;;;;;;4101469;29;20090;-82
2024/01/23 10:57:36;;;;;;;12.45;2.10;;;7.00;92.10;;;;;;4101657;29;20062;-81
2024/01/23 10:59:39;;;;;;;10.65;1.98;;;7.00;91.70;;;;;;4101298;29;20460;-81
2024/01/23 11:01:43;;;;;;;9.95;2.03;;;7.00;92.10;;;;;;4100891;29;20079;-79
2024/01/23 11:03:45;;;;;;;9.52;1.98;;;7.10;92.10;;;;;;4101039;29;20138;-82
2024/01/23 11:05:53;;;;;;;9.43;1.98;;;7.10;91.90;;;;;;4098895;28;20051;-81
2024/01/23 11:07:59;;;;;;;12.07;2.95;;;7.10;91.50;;;;;;4099128;29;20392;-79
2024/01/23 11:10:06;;;;;;;;;;;7.10;91.50;;;;;;4099464;29;20509;-80
2024/01/23 11:12:20;;;;;;;11.27;1.83;;;7.10;91.10;;;;;;4098752;29;19973;-78
2024/01/23 11:14:30;;;;;;;7.60;1.70;;;7.10;90.70;;;;;;4098242;29;20050;-81
2024/01/23 11:16:32;;;;;;;10.65;1.92;;;7.30;90.00;;;;;;4098571;29;20448;-79
2024/01/23 11:18:34;;;;;;;13.07;2.60;;;7.40;89.60;;;;;;4098642;29;20047;-82
2024/01/23 11:20:36;;;;;;;9.70;1.80;;;7.50;88.80;;;;;;4098430;28;20062;-81
2024/01/23 11:22:37;;;;;;;10.95;2.17;;;7.70;88.20;;;;;;4098750;29;20051;-79
2024/01/23 11:24:41;;;;;;;9.50;1.65;;;7.70;86.30;;;;;;4096674;29;20503;-81
2024/01/23 11:26:43;;;;;;;8.48;1.55;;;7.80;84.20;;;;;;4098768;29;20051;-79
2024/01/23 11:28:47;;;;;;;11.88;2.13;;;8.00;83.70;;;;;;4098299;29;20063;-80
2024/01/23 11:31:07;;;;;;;12.00;2.03;;;8.10;83.70;;;;;;4098612;29;20138;-80
2024/01/23 11:33:23;;;;;;;11.70;2.40;;;8.20;83.60;;;;;;4098708;29;20134;-79
2024/01/23 11:35:24;;;;;;;11.80;2.00;;;8.20;81.60;;;;;;4098874;29;20138;-79
2024/01/23 11:37:39;;;;;;;8.45;2.15;;;8.20;80.40;;;;;;4098289;29;20106;-80
2024/01/23 11:39:45;;;;;;;8.20;1.75;;;8.30;79.20;;;;;;4098633;29;20485;-81
2024/01/23 11:41:49;;;;;;;8.55;2.00;;;8.30;78.70;;;;;;4098330;29;20500;-81
2024/01/23 11:43:54;;;;;;;9.15;1.80;;;8.30;77.90;;;;;;4097977;29;20116;-82
2024/01/23 11:45:55;;;;;;;7.82;1.42;;;8.20;79.20;;;;;;4098058;29;20062;-82
2024/01/23 11:47:59;;;;;;;11.68;1.80;;;8.10;75.50;;;;;;4098537;29;20448;-80
2024/01/23 11:50:01;;;;;;;8.75;1.80;;;8.20;75.10;;;;;;4098568;29;20540;-80
2024/01/23 11:52:06;;;;;;;9.15;1.60;;;8.20;72.40;;;;;;4098181;29;20446;-80
2024/01/23 11:54:10;;;;;;;11.82;2.17;;;8.30;74.10;;;;;;4097951;29;20059;-80
2024/01/23 11:56:12;;;;;;;9.15;1.73;;;8.20;73.70;;;;;;4098181;29;20059;-80
2024/01/23 11:58:14;;;;;;;9.82;1.75;;;8.30;74.10;;;;;;4098114;29;20051;-80
2024/01/23 12:00:18;;;;;;;11.80;2.22;;;8.30;73.60;;;;;;4098217;29;20058;-79
2024/01/23 12:02:21;;;;;;;10.15;2.00;;;8.40;74.30;;;;;;4097793;29;20089;-80
2024/01/23 12:04:23;;;;;;;5.90;1.60;;;8.40;72.10;;;;;;4081283;29;20055;-79
2024/01/23 12:06:25;;;;;;;11.32;1.75;;;8.50;72.00;;;;;;4097799;29;20054;-79
2024/01/23 12:08:27;;;;;;;7.70;1.92;;;8.50;72.30;;;;;;4098362;29;20055;-80
2024/01/23 12:10:29;;;;;;;8.23;1.73;;;8.60;71.50;;;;;;4098295;29;20556;-78
2024/01/23 12:12:30;;;;;;;10.98;2.00;;;8.60;70.50;;;;;;4098137;29;20055;-81
2024/01/23 12:14:32;;;;;;;14.20;2.00;;;8.70;71.20;;;;;;4097938;29;20055;-79
2024/01/23 12:16:35;;;;;;;10.30;1.80;;;8.70;71.10;;;;;;4098319;29;20058;-81
2024/01/23 12:18:36;;;;;;;7.95;1.73;;;8.70;71.40;;;;;;4097748;29;20047;-81
2024/01/23 12:20:42;;;;;;;11.70;2.10;;;8.90;70.70;;;;;;4098293;29;20055;-80
2024/01/23 12:22:44;;;;;;;10.10;1.85;;;9.00;69.30;;;;;;4098287;29;20066;-79
2024/01/23 12:24:47;;;;;;;9.23;1.75;;;9.00;69.40;;;;;;4096202;29;20393;-80
2024/01/23 12:26:49;;;;;;;10.55;1.92;;;9.10;68.70;;;;;;4098009;29;20462;-80
2024/01/23 12:28:51;;;;;;;9.38;1.70;;;9.00;68.20;;;;;;4097741;29;20058;-78
2024/01/23 12:30:52;;;;;;;14.68;1.90;;;9.00;68.80;;;;;;4097936;29;20398;-78
2024/01/23 12:32:56;;;;;;;9.55;1.75;;;9.10;67.90;;;;;;4100500;28;20106;-79
2024/01/23 12:34:59;;;;;;;7.63;1.60;;;9.30;67.50;;;;;;4101892;29;20043;-79
2024/01/23 12:37:01;;;;;;;8.73;2.10;;;9.30;67.70;;;;;;4101273;29;20059;-77
2024/01/23 12:39:03;;;;;;;7.93;2.00;;;9.50;66.70;;;;;;4101471;29;20488;-79
2024/01/23 12:41:05;;;;;;;11.75;2.47;;;9.50;65.90;;;;;;4100974;29;20079;-79
2024/01/23 12:43:08;;;;;;;10.00;2.25;;;9.60;67.00;;;;;;4101185;29;20548;-79
2024/01/23 12:45:12;;;;;;;12.18;2.00;;;9.70;65.10;;;;;;4101097;29;20055;-80
2024/01/23 12:47:15;;;;;;;9.27;1.75;;;9.70;64.90;;;;;;4101097;29;20051;-79
2024/01/23 12:49:18;;;;;;;8.85;1.85;;;9.50;64.40;;;;;;4101453;29;20421;-80
2024/01/23 12:51:20;;;;;;;8.30;1.80;;;9.60;64.90;;;;;;4101107;29;20134;-79
2024/01/23 12:53:24;;;;;;;11.95;1.92;;;9.50;64.80;;;;;;4100785;29;20386;-78
2024/01/23 12:55:28;;;;;;;7.55;1.65;;;9.50;65.20;;;;;;4101062;29;20099;-78
2024/01/23 12:57:29;;;;;;;11.07;2.10;;;9.50;65.30;;;;;;4100966;29;20078;-80
2024/01/23 12:59:31;;;;;;;7.30;1.60;;;9.40;66.20;;;;;;4101035;29;20110;-78
2024/01/23 13:01:33;;;;;;;8.13;1.80;;;9.20;66.80;;;;;;4100829;29;20051;-78
2024/01/23 13:03:35;;;;;;;9.02;1.60;;;9.40;67.00;;;;;;4103960;29;20114;-79
2024/01/23 13:05:38;;;;;;;11.52;2.05;;;9.50;66.30;;;;;;4104396;29;20051;-79
2024/01/23 13:07:39;;;;;;;10.95;2.00;;;9.80;66.40;;;;;;4100870;29;20138;-79
2024/01/23 13:09:41;;;;;;;11.73;1.88;;;10.10;64.70;;;;;;4101157;29;20420;-79
2024/01/23 13:11:43;;;;;;;9.23;1.67;;;10.20;64.60;;;;;;4100606;29;20106;-79
2024/01/23 13:13:47;;;;;;;8.60;1.60;;;10.30;64.70;;;;;;4100935;29;20460;-80
2024/01/23 13:15:49;;;;;;;12.75;1.90;;;9.90;63.60;;;;;;4100865;29;20058;-79
2024/01/23 13:17:50;;;;;;;11.20;2.15;;;9.60;65.70;;;;;;4100308;29;20054;-81
2024/01/23 13:19:52;;;;;;;11.90;2.47;;;9.50;66.70;;;;;;4100431;29;20118;-80
2024/01/23 13:21:54;;;;;;;8.70;2.08;;;9.50;67.10;;;;;;4100726;29;20394;-78
2024/01/23 13:23:56;;;;;;;7.57;1.48;;;9.40;67.50;;;;;;4098226;29;20106;-79
2024/01/23 13:25:58;;;;;;;7.05;1.55;;;9.20;67.40;;;;;;4100081;29;20114;-79
2024/01/23 13:28:00;;;;;;;7.53;1.98;;;9.20;67.90;;;;;;4100215;29;20051;-80
2024/01/23 13:30:03;;;;;;;10.73;1.92;;;9.10;68.20;;;;;;4099912;29;20098;-79
2024/01/23 13:32:07;;;;;;;10.15;2.00;;;8.90;68.50;;;;;;4100465;29;20142;-80
2024/01/23 13:34:09;;;;;;;10.18;1.80;;;9.00;68.60;;;;;;4100818;29;20083;-78
2024/01/23 13:36:11;;;;;;;10.73;2.05;;;8.80;68.20;;;;;;4100946;29;20047;-80
2024/01/23 13:38:14;;;;;;;10.85;2.25;;;8.70;68.90;;;;;;4101451;29;20495;-79
2024/01/23 13:40:16;;;;;;;8.98;2.17;;;8.70;69.70;;;;;;4092265;29;20062;-81
2024/01/23 13:42:18;;;;;;;6.75;1.65;;;8.70;69.80;;;;;;4103849;29;20086;-80
2024/01/23 13:44:20;;;;;;;9.10;1.92;;;8.70;69.80;;;;;;4102766;28;20059;-80
2024/01/23 13:46:22;;;;;;;11.20;1.52;;;8.70;69.80;;;;;;4102709;29;20051;-80
2024/01/23 13:48:24;;;;;;;10.70;1.88;;;8.70;69.60;;;;;;4102632;29;20078;-80
2024/01/23 13:50:25;;;;;;;10.05;1.92;;;8.70;70.00;;;;;;4102502;29;20052;-82
2024/01/23 13:52:27;;;;;;;9.15;1.77;;;8.70;70.10;;;;;;4104046;29;20552;-79
2024/01/23 13:54:30;;;;;;;9.27;1.67;;;8.60;69.70;;;;;;4100944;29;20055;-80
2024/01/23 13:56:34;;;;;;;10.95;2.08;;;8.60;70.40;;;;;;4100210;29;20102;-77
2024/01/23 13:58:36;;;;;;;10.65;2.15;;;8.50;70.30;;;;;;4100962;29;20129;-78
2024/01/23 14:00:38;;;;;;;7.63;1.83;;;8.60;70.50;;;;;;4100119;29;20441;-81
2024/01/23 14:02:41;;;;;;;10.07;1.70;;;8.60;70.10;;;;;;4100030;29;20500;-78
2024/01/23 14:04:43;;;;;;;9.68;2.03;;;8.50;70.50;;;;;;4100090;29;20051;-79
2024/01/23 14:06:45;;;;;;;6.03;1.70;;;8.60;70.30;;;;;;4099597;29;20448;-78
2024/01/23 14:08:46;;;;;;;9.75;1.90;;;8.60;70.40;;;;;;4100154;29;20055;-79
2024/01/23 14:10:50;;;;;;;7.72;1.60;;;8.50;70.10;;;;;;4099982;29;20069;-80
2024/01/23 14:12:52;;;;;;;9.52;2.08;;;8.50;70.10;;;;;;4100200;29;20058;-80
2024/01/23 14:14:53;;;;;;;8.38;1.60;;;8.40;70.40;;;;;;4099871;29;20408;-79
2024/01/23 14:16:55;;;;;;;8.40;1.70;;;8.40;70.80;;;;;;4099615;29;20059;-78
2024/01/23 14:18:59;;;;;;;9.98;2.10;;;8.40;70.90;;;;;;4099814;29;20055;-78
2024/01/23 14:21:02;;;;;;;9.07;1.95;;;8.30;71.40;;;;;;4099597;29;20590;-78
2024/01/23 14:23:03;;;;;;;6.18;1.50;;;8.40;71.60;;;;;;4097625;29;20153;-78
2024/01/23 14:25:06;;;;;;;24.40;9.07;;;8.40;71.50;;;;;;4100031;29;20076;-79
2024/01/23 14:27:10;;;;;;;10.43;3.50;;;8.40;71.70;;;;;;4100494;29;20062;-81
2024/01/23 14:29:12;;;;;;;10.43;1.98;;;8.40;71.70;;;;;;4101002;29;20051;-79
2024/01/23 14:31:13;;;;;;;8.00;1.77;;;8.40;71.90;;;;;;4100635;29;20540;-78
2024/01/23 14:33:14;;;;;;;8.77;2.22;;;8.40;72.00;;;;;;4100090;29;20051;-79
2024/01/23 14:35:17;;;;;;;23.58;8.60;;;8.40;72.00;;;;;;4100505;29;20110;-80
2024/01/23 14:37:18;;;;;;;10.10;2.90;;;8.40;71.70;;;;;;4101498;29;20453;-80
2024/01/23 14:39:20;;;;;;;9.40;2.00;;;8.40;71.80;;;;;;4099634;29;20055;-81
2024/01/23 14:41:21;;;;;;;11.32;2.60;;;8.40;71.70;;;;;;4099960;29;20106;-80
2024/01/23 14:43:24;;;;;;;7.82;1.90;;;8.40;72.10;;;;;;4100560;29;20047;-79
2024/01/23 14:45:26;;;;;;;9.55;2.10;;;8.40;72.30;;;;;;4099506;29;20047;-81
2024/01/23 14:47:27;;;;;;;8.90;1.40;;;8.40;72.30;;;;;;4100722;29;20047;-79
2024/01/23 14:49:29;;;;;;;10.43;2.22;;;8.40;72.20;;;;;;4099682;29;20078;-79
2024/01/23 14:51:31;;;;;;;7.07;1.58;;;8.40;72.10;;;;;;4099382;29;20611;-80
2024/01/23 14:53:33;;;;;;;9.07;1.80;;;8.40;72.20;;;;;;4099206;29;20497;-79
2024/01/23 14:55:35;;;;;;;7.25;1.85;;;8.40;72.10;;;;;;4099258;28;20046;-79
2024/01/23 14:57:39;;;;;;;7.97;2.03;;;8.30;71.70;;;;;;4099352;29;20061;-80
2024/01/23 14:59:42;;;;;;;7.72;1.85;;;8.30;71.90;;;;;;4099107;29;20134;-79
2024/01/23 15:01:44;;;;;;;8.18;1.85;;;8.30;71.90;;;;;;4098721;29;20109;-78
2024/01/23 15:03:45;;;;;;;5.65;1.60;;;8.30;71.90;;;;;;4098648;29;20059;-80
2024/01/23 15:05:47;;;;;;;10.05;2.22;;;8.30;72.00;;;;;;4081717;29;20048;-78
2024/01/23 15:07:49;;;;;;;8.38;1.98;;;8.30;72.00;;;;;;4098550;29;20055;-84
2024/01/23 15:09:50;;;;;;;8.77;2.13;;;8.30;72.20;;;;;;4099890;29;20055;-80
2024/01/23 15:11:52;;;;;;;6.65;1.63;;;8.30;72.10;;;;;;4099396;29;20521;-79
2024/01/23 15:13:54;;;;;;;6.28;1.52;;;8.30;72.20;;;;;;4098876;29;20587;-80
2024/01/23 15:15:57;;;;;;;9.90;1.80;;;8.30;71.60;;;;;;4098725;29;20544;-80
2024/01/23 15:17:59;;;;;;;9.27;2.72;;;8.30;71.80;;;;;;4098093;29;20051;-82
2024/01/23 15:20:02;;;;;;;15.73;3.53;;;8.20;71.90;;;;;;4098834;29;20114;-80
2024/01/23 15:22:04;;;;;;;7.57;2.38;;;8.20;71.70;;;;;;4097675;28;20121;-80
2024/01/23 15:24:07;;;;;;;11.35;2.05;;;8.20;71.60;;;;;;4095371;29;20126;-80
2024/01/23 15:26:09;;;;;;;11.98;1.80;;;8.30;71.50;;;;;;4094863;28;20114;-82
2024/01/23 15:28:11;;;;;;;7.40;1.77;;;8.20;71.50;;;;;;4096116;28;20051;-80
2024/01/23 15:30:13;;;;;;;8.63;1.60;;;8.20;71.40;;;;;;4095717;29;20051;-81
2024/01/23 15:32:16;;;;;;;8.32;1.77;;;8.20;71.40;;;;;;4098930;29;20047;-82
2024/01/23 15:34:18;;;;;;;9.65;1.90;;;8.20;71.40;;;;;;4093030;29;20481;-83
2024/01/23 15:36:20;;;;;;;8.50;1.90;;;8.20;71.60;;;;;;4098236;29;20047;-80
2024/01/23 15:38:22;;;;;;;10.65;1.98;;;8.20;71.50;;;;;;4107057;28;20117;-80
2024/01/23 15:40:24;;;;;;;11.43;2.05;;;8.20;71.20;;;;;;4103279;28;20091;-78
2024/01/23 15:42:27;;;;;;;7.65;1.67;;;8.20;71.50;;;;;;4097540;29;20051;-80
2024/01/23 15:44:29;;;;;;;7.93;1.83;;;8.20;71.40;;;;;;4097829;28;20055;-80
2024/01/23 15:46:31;;;;;;;10.48;2.03;;;8.20;71.50;;;;;;4080836;29;20656;-81
2024/01/23 15:48:34;;;;;;;9.73;1.90;;;8.20;71.30;;;;;;4097964;29;20082;-80
2024/01/23 15:50:36;;;;;;;9.77;1.95;;;8.20;71.60;;;;;;4097736;29;20106;-81
2024/01/23 15:52:38;;;;;;;8.02;1.95;;;8.20;71.40;;;;;;4098065;29;20074;-80
2024/01/23 15:54:38;;;;;;;8.65;1.73;;;8.20;71.60;;;;;;4097302;29;20051;-80
2024/01/23 15:56:41;;;;;;;8.27;1.80;;;8.20;71.60;;;;;;4096872;29;20098;-82
2024/01/23 15:58:43;;;;;;;8.90;1.83;;;8.20;71.40;;;;;;4097389;29;20055;-80
2024/01/23 16:00:45;;;;;;;8.02;1.75;;;8.10;71.40;;;;;;4097166;29;20094;-80
2024/01/23 16:02:47;;;;;;;10.43;1.80;;;8.10;71.40;;;;;;4093709;29;20069;-80
2024/01/23 16:04:51;;;;;;;6.75;1.88;;;8.10;71.40;;;;;;4097357;29;20114;-80
2024/01/23 16:06:53;;;;;;;9.77;2.30;;;8.10;71.50;;;;;;4092813;29;20046;-78
2024/01/23 16:08:54;;;;;;;11.77;2.13;;;8.10;71.50;;;;;;4097011;29;20552;-80
2024/01/23 16:10:57;;;;;;;10.43;2.25;;;8.10;71.50;;;;;;4097127;29;20047;-81
2024/01/23 16:13:00;;;;;;;7.60;1.70;;;8.10;71.50;;;;;;4096787;29;20118;-80
2024/01/23 16:15:01;;;;;;;10.55;2.03;;;8.10;71.50;;;;;;4096431;28;20058;-81
2024/01/23 16:17:04;;;;;;;12.98;2.50;;;8.10;71.60;;;;;;4096715;29;20146;-82
2024/01/23 16:19:05;;;;;;;8.00;2.15;;;8.10;71.50;;;;;;4098645;29;20532;-80
2024/01/23 16:21:08;;;;;;;9.38;2.10;;;8.10;71.70;;;;;;4098786;29;20043;-81
2024/01/23 16:23:10;;;;;;;12.30;2.17;;;8.10;71.60;;;;;;4097328;29;20263;-81
2024/01/23 16:25:12;;;;;;;14.85;3.65;;;8.10;71.50;;;;;;4098730;29;20489;-80
2024/01/23 16:27:14;;;;;;;11.90;2.40;;;8.10;71.60;;;;;;4098033;29;20691;-82
2024/01/23 16:29:16;;;;;;;10.23;2.33;;;8.10;71.80;;;;;;4097757;29;20051;-81
2024/01/23 16:31:18;;;;;;;11.77;2.75;;;8.00;71.90;;;;;;4097995;29;20505;-81
2024/01/23 16:33:19;;;;;;;16.08;2.58;;;8.10;72.00;;;;;;4098012;28;20603;-80
2024/01/23 16:35:20;;;;;;;9.43;2.40;;;8.00;72.10;;;;;;4097800;29;20059;-80
2024/01/23 16:37:23;;;;;;;13.30;2.88;;;8.00;72.20;;;;;;4097860;29;20114;-82
2024/01/23 16:39:25;;;;;;;10.52;2.70;;;8.00;72.30;;;;;;4097748;29;20055;-79
2024/01/23 16:41:27;;;;;;;11.05;2.72;;;8.00;72.50;;;;;;4097541;29;20109;-80
2024/01/23 16:43:29;;;;;;;12.65;2.75;;;8.00;72.60;;;;;;4097896;29;20278;-81
2024/01/23 16:45:31;;;;;;;9.05;2.10;;;8.00;72.90;;;;;;4097417;29;20512;-81